Time;durP1;ratioP1;P1;durP2;ratioP2;P2;SDS_P1;SDS_P2;PMS_P1;PMS_P2;Temp;Humidity;BMP_temperature;BMP_pressure;BME280_temperature;BME280_humidity;BME280_pressure;Samples;Min_cycle;Max_cycle;Signal;HPM_P1;HPM_P2
2022/05/03 00:00:35;;;;;;;16.77;10.20;;;12.90;99.90;;;;;;4613040;28;10001135;-76
2022/05/03 00:03:24;;;;;;;12.20;9.77;;;12.60;99.90;;;;;;4613026;28;9999818;-75
2022/05/03 00:06:19;;;;;;;12.80;10.15;;;12.70;99.90;;;;;;4962171;28;20114;-76
2022/05/03 00:08:53;;;;;;;15.15;10.20;;;;;;;;;;4960483;28;20026;-75
2022/05/03 00:11:25;;;;;;;17.15;10.48;;;12.50;99.90;;;;;;4959129;28;20153;-76
2022/05/03 00:14:09;;;;;;;18.05;10.25;;;12.70;99.90;;;;;;4959670;28;20799;-75
2022/05/03 00:16:37;;;;;;;12.77;9.80;;;12.50;99.90;;;;;;4960805;28;20027;-75
2022/05/03 00:19:05;;;;;;;12.80;9.90;;;12.50;99.90;;;;;;4968472;28;20505;-75
2022/05/03 00:21:33;;;;;;;16.35;10.60;;;12.40;99.90;;;;;;4961663;28;20984;-76
2022/05/03 00:23:59;;;;;;;15.05;10.48;;;12.30;99.90;;;;;;4960397;28;20050;-75
2022/05/03 00:26:28;;;;;;;12.82;10.50;;;12.30;99.90;;;;;;4963039;28;20058;-75
2022/05/03 00:28:55;;;;;;;13.20;10.55;;;12.20;99.90;;;;;;4964453;28;20035;-75
2022/05/03 00:31:22;;;;;;;17.90;11.00;;;12.30;99.90;;;;;;4960965;28;20063;-75
2022/05/03 00:33:49;;;;;;;13.35;10.27;;;12.10;99.90;;;;;;4956755;28;20061;-75
2022/05/03 00:36:15;;;;;;;14.63;10.27;;;12.10;99.90;;;;;;4952146;28;20035;-75
2022/05/03 00:38:40;;;;;;;16.77;10.35;;;12.00;99.90;;;;;;4960972;28;20082;-75
2022/05/03 00:41:10;;;;;;;14.50;10.25;;;12.00;99.90;;;;;;4962198;28;20746;-75
2022/05/03 00:43:48;;;;;;;12.68;10.02;;;12.00;99.90;;;;;;4962195;28;20478;-75
2022/05/03 00:46:19;;;;;;;14.95;10.82;;;12.00;99.90;;;;;;4962836;28;20098;-75
2022/05/03 00:49:18;;;;;;;14.52;10.88;;;12.00;99.90;;;;;;4964788;28;20110;-75
2022/05/03 00:51:52;;;;;;;13.68;11.20;;;12.00;99.90;;;;;;4963648;28;20267;-76
2022/05/03 00:54:56;;;;;;;16.73;10.20;;;11.90;99.90;;;;;;4965759;28;20169;-75
2022/05/03 00:57:59;;;;;;;15.25;11.13;;;11.90;99.90;;;;;;4934357;28;20038;-75
2022/05/03 01:00:25;;;;;;;16.08;10.98;;;11.90;99.90;;;;;;4956865;28;20043;-75
2022/05/03 01:03:06;;;;;;;16.52;10.45;;;11.80;99.90;;;;;;4955077;28;20546;-75
2022/05/03 01:05:53;;;;;;;15.63;10.88;;;11.80;99.90;;;;;;4958428;28;20031;-75
2022/05/03 01:08:44;;;;;;;16.77;10.88;;;11.80;99.90;;;;;;4962739;28;20509;-75
2022/05/03 01:11:09;;;;;;;14.48;10.93;;;11.80;99.90;;;;;;4962724;28;20050;-75
2022/05/03 01:13:41;;;;;;;13.57;10.73;;;11.80;99.90;;;;;;4965448;28;20023;-75
2022/05/03 01:16:29;;;;;;;11.80;10.25;;;11.80;99.90;;;;;;4961582;28;20042;-74
2022/05/03 01:19:27;;;;;;;18.23;10.77;;;11.80;99.90;;;;;;4953254;28;20062;-74
2022/05/03 01:22:26;;;;;;;14.73;10.70;;;11.70;99.90;;;;;;4952171;28;20061;-74
2022/05/03 01:25:27;;;;;;;20.30;10.75;;;11.70;99.90;;;;;;4961880;28;20523;-74
2022/05/03 01:28:16;;;;;;;15.45;10.48;;;11.70;99.90;;;;;;4957232;28;20093;-74
2022/05/03 01:30:49;;;;;;;12.93;10.20;;;11.70;99.90;;;;;;4955376;28;20038;-74
2022/05/03 01:33:22;;;;;;;13.18;9.82;;;11.70;99.90;;;;;;4952857;28;20042;-74
2022/05/03 01:35:57;;;;;;;18.38;10.57;;;11.70;99.90;;;;;;4953179;28;20031;-74
2022/05/03 01:38:49;;;;;;;16.35;10.88;;;11.60;99.90;;;;;;4954884;28;20031;-74
2022/05/03 01:41:37;;;;;;;15.70;10.35;;;11.60;99.90;;;;;;4955563;28;20300;-74
2022/05/03 01:44:25;;;;;;;12.80;10.43;;;11.60;99.90;;;;;;4958246;28;20027;-74
2022/05/03 01:46:57;;;;;;;14.77;10.25;;;11.60;99.90;;;;;;4963767;28;20030;-76
2022/05/03 01:50:19;;;;;;;15.52;10.38;;;11.50;99.90;;;;;;4961868;28;20388;-74
2022/05/03 01:53:12;;;;;;;16.20;10.75;;;11.50;99.90;;;;;;4934171;28;20134;-74
2022/05/03 01:55:45;;;;;;;16.92;11.38;;;11.50;99.90;;;;;;4961723;28;20174;-74
2022/05/03 01:58:23;;;;;;;14.85;11.02;;;11.50;99.90;;;;;;4963615;28;20400;-74
2022/05/03 02:01:04;;;;;;;16.80;11.50;;;11.50;99.90;;;;;;4956896;28;20043;-74
2022/05/03 02:03:44;;;;;;;19.80;11.63;;;11.50;99.90;;;;;;4958934;28;20030;-74
2022/05/03 02:06:13;;;;;;;15.63;11.05;;;11.40;99.90;;;;;;4950367;28;20023;-74
2022/05/03 02:08:55;;;;;;;16.33;11.73;;;11.40;99.90;;;;;;4957512;28;20022;-74
2022/05/03 02:11:29;;;;;;;14.60;11.10;;;11.40;99.90;;;;;;4960028;28;20046;-73
2022/05/03 02:17:05;;;;;;;15.30;10.52;;;11.40;99.90;;;;;;4962567;28;20113;-76
2022/05/03 02:19:53;;;;;;;16.48;11.55;;;11.40;99.90;;;;;;4965082;28;20430;-74
2022/05/03 02:22:30;;;;;;;16.70;11.40;;;11.40;99.90;;;;;;4960690;28;20038;-74
2022/05/03 02:25:24;;;;;;;16.33;10.95;;;11.40;99.90;;;;;;4964752;28;20282;-74
2022/05/03 02:28:02;;;;;;;;;;;11.40;99.90;;;;;;4967202;28;20045;-74
2022/05/03 02:30:33;;;;;;;15.02;11.13;;;11.40;99.90;;;;;;4959901;28;20170;-74
2022/05/03 02:33:04;;;;;;;18.63;10.85;;;11.40;99.90;;;;;;4960218;28;20031;-74
2022/05/03 02:35:33;;;;;;;17.20;11.30;;;11.40;99.90;;;;;;4960525;28;20149;-74
2022/05/03 02:38:04;;;;;;;16.98;11.00;;;11.40;99.90;;;;;;4957365;28;20033;-74
2022/05/03 02:40:31;;;;;;;14.30;10.65;;;11.40;99.90;;;;;;4961806;28;20165;-75
2022/05/03 02:42:57;;;;;;;16.60;11.23;;;11.40;99.90;;;;;;4956258;28;20035;-74
2022/05/03 02:45:23;;;;;;;14.65;10.98;;;11.40;99.90;;;;;;4960152;28;20035;-74
2022/05/03 02:48:14;;;;;;;15.48;11.48;;;11.40;99.90;;;;;;4963716;28;20337;-74
2022/05/03 02:50:53;;;;;;;15.20;11.18;;;11.40;99.90;;;;;;4961047;28;20483;-74
2022/05/03 02:53:46;;;;;;;16.30;11.15;;;11.40;99.90;;;;;;4953320;28;20704;-77
2022/05/03 02:56:43;;;;;;;15.60;11.75;;;11.30;99.90;;;;;;4962471;28;20030;-76
2022/05/03 03:02:39;;;;;;;16.80;11.27;;;11.40;99.90;;;;;;4942784;28;20075;-73
2022/05/03 03:05:09;;;;;;;19.63;11.30;;;11.30;99.90;;;;;;4961690;28;20631;-76
2022/05/03 03:07:58;;;;;;;14.40;10.85;;;11.30;99.90;;;;;;4957400;28;20027;-76
2022/05/03 03:10:31;;;;;;;16.85;11.68;;;11.30;99.90;;;;;;4956521;28;20080;-76
2022/05/03 03:13:15;;;;;;;15.38;10.25;;;11.30;99.90;;;;;;4970046;28;20057;-76
2022/05/03 03:15:41;;;;;;;16.65;11.02;;;11.30;99.90;;;;;;4963533;28;20038;-76
2022/05/03 03:18:14;;;;;;;14.48;11.02;;;11.30;99.90;;;;;;4964611;28;20035;-75
2022/05/03 03:20:45;;;;;;;15.27;10.40;;;11.30;99.90;;;;;;4959701;28;20039;-76
2022/05/03 03:23:15;;;;;;;22.67;11.20;;;11.20;99.90;;;;;;4961878;28;20034;-76
2022/05/03 03:25:43;;;;;;;16.75;10.77;;;11.20;99.90;;;;;;4956036;28;20548;-75
2022/05/03 03:28:12;;;;;;;15.02;10.25;;;11.20;99.90;;;;;;4961813;28;20205;-75
2022/05/03 03:30:40;;;;;;;16.83;10.65;;;11.10;99.90;;;;;;4960765;28;20481;-75
2022/05/03 03:33:07;;;;;;;18.80;10.40;;;11.10;99.90;;;;;;4960419;28;20031;-76
2022/05/03 03:35:34;;;;;;;14.60;9.98;;;11.10;99.90;;;;;;4964728;28;20022;-76
2022/05/03 03:38:01;;;;;;;14.77;10.45;;;11.10;99.90;;;;;;4961410;28;20042;-75
2022/05/03 03:40:27;;;;;;;15.70;9.55;;;11.00;99.90;;;;;;4962626;28;20035;-75
2022/05/03 03:42:54;;;;;;;11.85;10.18;;;11.00;99.90;;;;;;4959229;28;20040;-76
2022/05/03 03:45:20;;;;;;;14.77;10.52;;;11.00;99.90;;;;;;4959942;28;20395;-75
2022/05/03 03:47:47;;;;;;;16.00;10.60;;;11.00;99.90;;;;;;4950036;28;20086;-75
2022/05/03 03:50:13;;;;;;;14.57;10.40;;;10.90;99.90;;;;;;4963906;28;20105;-75
2022/05/03 03:52:46;;;;;;;15.73;10.60;;;10.90;99.90;;;;;;4964230;28;20037;-75
2022/05/03 03:55:12;;;;;;;18.88;10.82;;;10.90;99.90;;;;;;4962398;28;20215;-76
2022/05/03 03:57:39;;;;;;;15.07;11.35;;;10.90;99.90;;;;;;4960202;28;20122;-76
2022/05/03 04:00:07;;;;;;;15.27;10.55;;;10.90;99.90;;;;;;4964053;28;20126;-75
2022/05/03 04:02:34;;;;;;;16.38;10.95;;;10.80;99.90;;;;;;4963887;28;20027;-76
2022/05/03 04:05:01;;;;;;;15.82;11.13;;;10.80;99.90;;;;;;4963611;28;20019;-75
2022/05/03 04:07:27;;;;;;;18.90;10.43;;;10.80;99.90;;;;;;4964860;28;20430;-75
2022/05/03 04:09:52;;;;;;;16.70;10.25;;;10.80;99.90;;;;;;4966972;28;20023;-75
2022/05/03 04:12:21;;;;;;;12.45;10.05;;;10.80;99.90;;;;;;4966137;28;20039;-75
2022/05/03 04:14:47;;;;;;;14.90;9.63;;;10.80;99.90;;;;;;4966701;28;20113;-75
2022/05/03 04:17:13;;;;;;;15.88;9.60;;;10.80;99.90;;;;;;4960594;28;20027;-76
2022/05/03 04:19:39;;;;;;;12.05;8.93;;;10.80;99.90;;;;;;4954612;28;20027;-75
2022/05/03 04:22:27;;;;;;;13.13;9.13;;;10.80;99.90;;;;;;4963445;28;20031;-75
2022/05/03 04:24:53;;;;;;;13.20;9.13;;;10.80;99.90;;;;;;4962153;28;20029;-76
2022/05/03 04:27:20;;;;;;;12.15;9.57;;;10.80;99.90;;;;;;4962900;28;20031;-75
2022/05/03 04:29:46;;;;;;;13.50;8.45;;;10.80;99.90;;;;;;4959717;28;20621;-75
2022/05/03 04:32:13;;;;;;;14.05;9.07;;;10.80;99.90;;;;;;4968072;28;20027;-75
2022/05/03 04:34:38;;;;;;;15.82;9.18;;;10.80;99.90;;;;;;4965610;28;20719;-75
2022/05/03 04:37:04;;;;;;;11.98;8.68;;;10.80;99.90;;;;;;4965060;28;20031;-75
2022/05/03 04:39:30;;;;;;;13.15;8.63;;;10.80;99.90;;;;;;4962852;28;20030;-76
2022/05/03 04:41:55;;;;;;;16.02;9.55;;;10.80;99.90;;;;;;4962778;28;20395;-75
2022/05/03 04:44:21;;;;;;;12.43;8.82;;;10.80;99.90;;;;;;4966773;28;20026;-76
2022/05/03 04:46:46;;;;;;;12.10;9.10;;;10.80;99.90;;;;;;4965418;28;20430;-75
2022/05/03 04:49:12;;;;;;;12.65;9.02;;;10.80;99.90;;;;;;4963135;28;20082;-76
2022/05/03 04:51:38;;;;;;;14.40;9.98;;;10.70;99.90;;;;;;4957962;28;20039;-75
2022/05/03 04:54:03;;;;;;;11.77;9.60;;;10.70;99.90;;;;;;4956286;28;20078;-76
2022/05/03 04:56:29;;;;;;;13.38;9.63;;;10.70;99.90;;;;;;4959609;28;20088;-76
2022/05/03 04:58:58;;;;;;;14.77;9.70;;;10.70;99.90;;;;;;4961498;28;20035;-76
2022/05/03 05:01:24;;;;;;;17.50;9.32;;;10.70;99.90;;;;;;4951716;28;20408;-75
2022/05/03 05:03:50;;;;;;;13.93;8.70;;;10.80;99.90;;;;;;4960241;28;20034;-75
2022/05/03 05:06:16;;;;;;;14.68;8.88;;;10.80;99.90;;;;;;4963660;28;20098;-75
2022/05/03 05:08:43;;;;;;;11.95;8.60;;;10.70;99.90;;;;;;4952583;28;20063;-75
2022/05/03 05:11:10;;;;;;;15.27;8.45;;;10.80;99.90;;;;;;4605927;28;10000273;-75
2022/05/03 05:13:36;;;;;;;12.00;7.80;;;10.80;99.90;;;;;;4961164;28;20023;-76
2022/05/03 05:16:03;;;;;;;16.33;8.88;;;10.80;99.90;;;;;;4964433;28;20515;-76
2022/05/03 05:18:29;;;;;;;16.10;9.02;;;10.80;99.90;;;;;;4963499;28;20054;-76
2022/05/03 05:20:55;;;;;;;10.90;7.90;;;10.80;99.90;;;;;;4950001;28;20035;-75
2022/05/03 05:23:21;;;;;;;17.95;7.85;;;10.80;99.90;;;;;;4963127;28;20046;-76
2022/05/03 05:25:48;;;;;;;11.88;7.18;;;10.80;99.90;;;;;;4950692;28;20046;-75
2022/05/03 05:28:15;;;;;;;16.95;7.65;;;10.80;99.90;;;;;;4962913;28;20034;-75
2022/05/03 05:30:41;;;;;;;11.48;7.25;;;10.80;99.90;;;;;;4958160;28;20027;-75
2022/05/03 05:33:07;;;;;;;9.10;6.82;;;10.90;99.90;;;;;;4962300;28;20058;-75
2022/05/03 05:35:33;;;;;;;9.77;7.35;;;10.90;99.90;;;;;;4962831;28;20509;-76
2022/05/03 05:37:59;;;;;;;12.70;7.18;;;11.00;99.90;;;;;;4962005;28;20035;-76
2022/05/03 05:40:24;;;;;;;13.30;7.57;;;11.00;99.90;;;;;;4956831;28;20034;-76
2022/05/03 05:42:50;;;;;;;10.60;6.82;;;11.10;99.90;;;;;;4960727;28;20041;-76
2022/05/03 05:45:17;;;;;;;10.57;6.50;;;11.10;99.90;;;;;;4962475;28;20045;-76
2022/05/03 05:47:42;;;;;;;10.90;6.40;;;11.20;99.90;;;;;;4957172;28;20093;-75
2022/05/03 05:50:09;;;;;;;9.27;6.13;;;11.30;99.90;;;;;;4957587;28;20496;-76
2022/05/03 05:55:19;;;;;;;9.48;6.07;;;11.40;99.90;;;;;;4963996;28;20111;-76
2022/05/03 05:57:45;;;;;;;9.35;6.45;;;11.40;99.90;;;;;;4959459;28;20102;-76
2022/05/03 06:00:11;;;;;;;10.30;6.70;;;11.40;99.90;;;;;;4953200;28;20063;-77
2022/05/03 06:02:38;;;;;;;11.70;6.40;;;11.40;99.90;;;;;;4956687;28;20051;-77
2022/05/03 06:05:03;;;;;;;11.98;6.43;;;11.40;99.90;;;;;;4958283;28;20262;-77
2022/05/03 06:07:29;;;;;;;9.25;6.15;;;11.40;99.90;;;;;;4959393;28;20035;-76
2022/05/03 06:09:55;;;;;;;9.35;5.80;;;11.40;99.90;;;;;;4960887;28;20049;-76
2022/05/03 06:12:21;;;;;;;9.70;5.95;;;11.40;99.90;;;;;;4970210;28;20093;-76
2022/05/03 06:14:46;;;;;;;8.25;5.60;;;11.40;99.90;;;;;;4966875;28;20089;-75
2022/05/03 06:17:12;;;;;;;12.40;5.88;;;11.50;99.90;;;;;;4961421;28;20078;-75
2022/05/03 06:19:38;;;;;;;10.30;6.10;;;11.50;99.90;;;;;;4961757;28;20105;-76
2022/05/03 06:22:04;;;;;;;10.73;5.35;;;11.50;99.90;;;;;;4955208;28;20457;-76
2022/05/03 06:24:30;;;;;;;8.95;5.60;;;11.50;99.90;;;;;;4954135;28;20125;-76
2022/05/03 06:26:56;;;;;;;11.18;5.93;;;11.50;99.90;;;;;;4952156;28;20023;-73
2022/05/03 06:29:21;;;;;;;9.15;5.75;;;11.60;99.90;;;;;;4962243;28;20037;-77
2022/05/03 06:31:47;;;;;;;7.95;5.85;;;11.70;99.90;;;;;;4958469;28;20023;-76
2022/05/03 06:34:12;;;;;;;9.15;5.78;;;11.70;99.90;;;;;;4953808;28;20106;-76
2022/05/03 06:36:38;;;;;;;10.82;6.57;;;11.80;99.90;;;;;;4956546;28;20383;-75
2022/05/03 06:39:04;;;;;;;10.40;6.22;;;11.90;99.90;;;;;;4957274;28;20539;-75
2022/05/03 06:41:31;;;;;;;12.57;6.32;;;11.90;99.90;;;;;;4959402;28;20641;-75
2022/05/03 06:43:58;;;;;;;13.25;6.50;;;12.00;99.90;;;;;;4959531;28;20554;-75
2022/05/03 06:46:27;;;;;;;11.80;7.00;;;12.10;99.90;;;;;;4957930;28;20030;-76
2022/05/03 06:48:52;;;;;;;10.50;6.80;;;12.20;99.90;;;;;;4964363;28;20043;-75
2022/05/03 06:51:18;;;;;;;10.05;7.10;;;12.40;99.90;;;;;;4955914;28;20035;-75
2022/05/03 06:53:44;;;;;;;10.27;7.05;;;;;;;;;;4966381;28;20471;-76
2022/05/03 06:56:10;;;;;;;11.15;7.50;;;12.80;99.90;;;;;;4961031;28;20118;-76
2022/05/03 06:58:35;;;;;;;13.50;7.78;;;13.00;99.90;;;;;;4964962;28;20026;-76
2022/05/03 07:01:13;;;;;;;13.30;7.47;;;12.90;99.90;;;;;;4952587;28;20480;-75
2022/05/03 07:03:39;;;;;;;15.15;7.72;;;12.90;99.90;;;;;;4958698;28;20042;-76
2022/05/03 07:06:05;;;;;;;9.52;7.25;;;12.80;99.90;;;;;;4958944;28;20034;-75
2022/05/03 07:08:32;;;;;;;10.15;7.03;;;12.80;99.90;;;;;;4953494;28;20247;-76
2022/05/03 07:10:58;;;;;;;12.15;7.05;;;;;;;;;;4958590;28;20039;-76
2022/05/03 07:13:25;;;;;;;9.65;6.75;;;;;;;;;;4963255;28;20019;-76
2022/05/03 07:15:51;;;;;;;9.65;6.35;;;;;;;;;;4962603;28;20101;-76
2022/05/03 07:23:47;;;;;;;9.57;5.95;;;;;;;;;;4959269;28;20041;-77
2022/05/03 07:26:13;;;;;;;9.73;5.72;;;;;;;;;;4957932;28;20042;-75
2022/05/03 07:28:39;;;;;;;8.70;5.90;;;13.10;99.90;;;;;;4945031;28;20641;-73
2022/05/03 07:31:06;;;;;;;8.02;5.72;;;13.10;99.90;;;;;;4957838;28;20097;-74
2022/05/03 07:33:32;;;;;;;10.63;5.80;;;13.20;99.90;;;;;;4964621;28;20027;-74
2022/05/03 07:35:58;;;;;;;12.50;5.90;;;13.30;99.90;;;;;;4960262;28;21205;-75
2022/05/03 07:38:23;;;;;;;11.95;6.30;;;13.50;99.90;;;;;;4958271;28;20066;-75
2022/05/03 07:40:49;;;;;;;9.68;5.78;;;13.50;99.90;;;;;;4950902;28;20467;-74
2022/05/03 07:43:15;;;;;;;9.38;5.85;;;13.50;99.90;;;;;;4959749;28;20077;-75
2022/05/03 07:45:40;;;;;;;9.18;5.15;;;13.50;99.90;;;;;;4973560;28;20030;-75
2022/05/03 07:48:06;;;;;;;8.43;5.95;;;13.60;99.90;;;;;;4955005;28;20039;-74
2022/05/03 07:50:32;;;;;;;9.75;5.43;;;13.70;99.90;;;;;;4958866;28;20043;-74
2022/05/03 07:52:58;;;;;;;8.68;5.25;;;13.70;99.90;;;;;;4958675;28;20685;-80
2022/05/03 07:55:24;;;;;;;6.82;4.75;;;13.90;99.90;;;;;;4963445;28;20034;-80
2022/05/03 07:57:49;;;;;;;9.52;5.72;;;14.00;99.90;;;;;;4962597;28;20118;-81
2022/05/03 08:00:15;;;;;;;9.85;5.30;;;14.00;99.90;;;;;;4949061;28;20023;-79
2022/05/03 08:02:41;;;;;;;10.93;5.80;;;14.00;99.90;;;;;;4960851;28;20109;-80
2022/05/03 08:05:08;;;;;;;10.52;5.95;;;13.90;99.90;;;;;;4966266;28;20702;-80
2022/05/03 08:07:35;;;;;;;8.77;5.35;;;13.80;99.90;;;;;;4957264;28;20041;-78
2022/05/03 08:10:01;;;;;;;8.70;5.70;;;13.80;99.90;;;;;;4954928;28;20114;-71
2022/05/03 08:12:27;;;;;;;8.40;5.25;;;14.00;99.90;;;;;;4958438;28;20192;-71
2022/05/03 08:14:53;;;;;;;10.75;5.95;;;14.00;99.90;;;;;;4971538;28;20118;-72
2022/05/03 08:17:19;;;;;;;9.35;5.72;;;14.00;99.90;;;;;;4957561;28;20046;-71
2022/05/03 08:19:45;;;;;;;8.68;6.15;;;14.00;99.90;;;;;;4959896;28;20039;-71
2022/05/03 08:22:11;;;;;;;10.45;6.20;;;14.10;99.90;;;;;;4963816;28;20037;-72
2022/05/03 08:24:37;;;;;;;9.40;6.13;;;14.30;99.90;;;;;;4959820;28;20039;-72
2022/05/03 08:27:03;;;;;;;7.70;5.43;;;14.40;99.90;;;;;;4962767;28;20034;-71
2022/05/03 08:29:31;;;;;;;7.57;6.20;;;14.50;99.90;;;;;;4964061;28;20526;-71
2022/05/03 08:31:57;;;;;;;9.68;6.30;;;14.60;99.90;;;;;;4962174;28;20035;-70
2022/05/03 08:34:23;;;;;;;9.27;6.15;;;14.60;99.90;;;;;;4960364;28;20575;-72
2022/05/03 08:42:17;;;;;;;12.60;5.55;;;14.80;99.90;;;;;;4964299;28;20045;-71
2022/05/03 08:44:42;;;;;;;8.73;5.63;;;14.90;99.90;;;;;;4970199;28;20031;-71
2022/05/03 08:47:09;;;;;;;10.32;4.97;;;15.10;99.90;;;;;;4965238;28;20114;-71
2022/05/03 08:49:51;;;;;;;11.00;5.57;;;15.20;99.90;;;;;;4962331;28;20407;-71
2022/05/03 08:52:17;;;;;;;11.15;6.00;;;15.30;99.90;;;;;;4964450;28;20162;-71
2022/05/03 08:54:43;;;;;;;11.13;5.97;;;15.40;99.90;;;;;;4960302;28;20027;-71
2022/05/03 08:57:09;;;;;;;10.85;6.22;;;15.50;99.90;;;;;;4963131;28;20050;-71
2022/05/03 08:59:36;;;;;;;10.57;6.07;;;15.70;99.90;;;;;;4964584;28;20050;-70
2022/05/03 09:02:04;;;;;;;11.20;7.18;;;15.70;99.90;;;;;;4959570;28;20033;-71
2022/05/03 09:04:29;;;;;;;11.07;6.35;;;15.60;99.90;;;;;;4957771;28;20047;-71
2022/05/03 09:06:55;;;;;;;11.88;6.60;;;15.70;99.90;;;;;;4962276;28;20529;-71
2022/05/03 09:09:22;;;;;;;12.32;6.40;;;15.60;99.90;;;;;;4964713;28;20046;-71
2022/05/03 09:11:53;;;;;;;8.68;6.13;;;15.50;99.90;;;;;;4958426;28;20027;-70
2022/05/03 09:14:38;;;;;;;11.93;5.82;;;15.40;99.90;;;;;;4963494;28;20114;-71
2022/05/03 09:17:04;;;;;;;11.38;5.88;;;15.50;99.90;;;;;;4961569;28;20033;-70
2022/05/03 09:19:30;;;;;;;11.38;5.90;;;15.50;99.90;;;;;;4960512;28;20035;-72
2022/05/03 09:25:06;;;;;;;8.45;5.40;;;15.50;99.90;;;;;;4967587;28;20116;-71
2022/05/03 09:27:32;;;;;;;8.07;5.70;;;15.70;99.90;;;;;;4964828;28;20035;-71
2022/05/03 09:30:10;;;;;;;10.77;5.63;;;15.60;99.90;;;;;;4962797;28;20487;-71
2022/05/03 09:32:44;;;;;;;8.93;5.95;;;15.60;99.90;;;;;;4961189;28;20027;-71
2022/05/03 09:35:31;;;;;;;12.90;6.05;;;15.50;99.90;;;;;;4962133;28;20034;-71
2022/05/03 09:37:57;;;;;;;10.15;6.28;;;15.40;99.90;;;;;;4962711;28;20023;-71
2022/05/03 09:40:23;;;;;;;7.80;6.35;;;15.50;99.90;;;;;;4958008;28;20034;-71
2022/05/03 09:42:56;;;;;;;10.98;6.90;;;15.40;99.90;;;;;;4963668;28;20089;-71
2022/05/03 09:45:23;;;;;;;;;;;15.40;99.90;;;;;;4968071;28;20073;-71
2022/05/03 09:47:51;;;;;;;10.38;7.50;;;15.50;99.90;;;;;;4960381;28;19922;-71
2022/05/03 09:50:37;;;;;;;10.55;7.60;;;15.50;99.90;;;;;;4959198;28;20054;-70
2022/05/03 09:53:18;;;;;;;11.18;8.10;;;15.50;99.90;;;;;;4963326;28;20046;-70
2022/05/03 09:55:46;;;;;;;12.40;8.85;;;15.70;99.90;;;;;;4958404;28;20416;-70
2022/05/03 09:58:14;;;;;;;13.85;9.40;;;15.80;99.90;;;;;;4953750;28;20023;-70
2022/05/03 10:00:42;;;;;;;18.00;9.00;;;15.90;99.90;;;;;;4955525;28;20506;-70
2022/05/03 10:03:10;;;;;;;15.65;9.63;;;16.00;99.90;;;;;;4959772;28;20103;-71
2022/05/03 10:05:37;;;;;;;10.10;8.85;;;16.20;99.90;;;;;;4963224;28;20034;-70
2022/05/03 10:08:04;;;;;;;15.40;9.10;;;16.20;99.90;;;;;;4966295;28;20059;-70
2022/05/03 10:10:31;;;;;;;13.73;9.32;;;16.30;99.90;;;;;;4954249;28;20085;-71
2022/05/03 10:12:58;;;;;;;14.43;10.35;;;16.30;99.90;;;;;;4962524;28;20450;-71
2022/05/03 10:21:14;;;;;;;14.55;9.98;;;16.20;99.90;;;;;;4959554;28;20037;-70
2022/05/03 10:23:39;;;;;;;14.68;10.43;;;16.20;99.90;;;;;;4966593;28;20033;-71
2022/05/03 10:26:09;;;;;;;13.63;9.93;;;16.20;99.90;;;;;;4962976;28;20034;-70
2022/05/03 10:28:56;;;;;;;14.10;9.75;;;16.30;99.90;;;;;;4962860;28;20046;-71
2022/05/03 10:31:22;;;;;;;14.25;9.43;;;16.40;99.90;;;;;;4951488;28;20041;-71
2022/05/03 10:33:48;;;;;;;14.75;10.60;;;16.50;99.90;;;;;;4959262;28;20019;-70
2022/05/03 10:36:35;;;;;;;17.13;11.38;;;16.60;99.90;;;;;;4962794;28;20078;-70
2022/05/03 10:39:23;;;;;;;17.25;10.50;;;16.70;98.30;;;;;;4966945;28;20027;-70
2022/05/03 10:41:56;;;;;;;13.43;10.63;;;16.60;98.60;;;;;;4957730;28;20035;-71
2022/05/03 10:44:52;;;;;;;12.63;10.05;;;16.60;97.20;;;;;;4952130;28;20033;-71
2022/05/03 10:47:37;;;;;;;18.15;10.35;;;16.70;97.80;;;;;;4960297;28;20050;-70
2022/05/03 10:50:19;;;;;;;13.20;10.60;;;16.80;97.60;;;;;;4955997;28;20515;-71
2022/05/03 10:53:06;;;;;;;12.23;9.95;;;16.90;97.00;;;;;;4956059;28;20423;-71
2022/05/03 10:55:35;;;;;;;15.63;8.95;;;17.00;99.20;;;;;;4966568;28;20027;-71
2022/05/03 10:58:24;;;;;;;12.20;9.57;;;17.20;97.80;;;;;;4963559;28;20059;-71
2022/05/03 11:01:09;;;;;;;12.00;9.30;;;17.30;97.80;;;;;;4957203;28;20035;-70
2022/05/03 11:03:40;;;;;;;13.80;9.90;;;17.40;97.00;;;;;;4964595;28;20033;-70
2022/05/03 11:06:27;;;;;;;15.27;9.60;;;17.50;97.50;;;;;;4959129;28;20030;-70
2022/05/03 11:09:08;;;;;;;15.45;10.20;;;17.50;96.40;;;;;;4961410;28;20034;-71
2022/05/03 11:11:40;;;;;;;18.00;9.63;;;17.60;96.40;;;;;;4957180;28;20031;-70
2022/05/03 11:14:25;;;;;;;15.63;10.35;;;17.70;97.50;;;;;;4963601;28;20027;-71
2022/05/03 11:17:07;;;;;;;14.40;10.18;;;17.90;96.50;;;;;;4960039;28;20030;-71
2022/05/03 11:19:50;;;;;;;10.35;9.25;;;18.10;97.30;;;;;;4961926;28;20027;-71
2022/05/03 11:22:17;;;;;;;14.25;9.57;;;18.20;94.30;;;;;;4959231;28;20035;-70
2022/05/03 11:24:45;;;;;;;12.85;10.10;;;18.40;95.70;;;;;;4955579;28;20372;-70
2022/05/03 11:27:11;;;;;;;17.52;9.88;;;18.60;95.60;;;;;;4963845;28;20542;-71
2022/05/03 11:29:47;;;;;;;12.52;10.05;;;18.60;94.00;;;;;;4953228;28;20491;-68
2022/05/03 11:32:15;;;;;;;14.90;10.02;;;18.50;94.10;;;;;;4954718;28;20023;-71
2022/05/03 11:34:41;;;;;;;11.35;9.52;;;18.50;95.90;;;;;;4960776;28;20105;-71
2022/05/03 11:37:07;;;;;;;12.38;9.75;;;18.40;94.20;;;;;;4955795;28;20039;-72
2022/05/03 11:39:36;;;;;;;14.18;9.90;;;;;;;;;;4954835;28;20118;-71
2022/05/03 11:42:02;;;;;;;15.23;9.70;;;18.60;99.90;;;;;;4953087;28;20070;-72
2022/05/03 11:44:27;;;;;;;11.00;9.32;;;18.50;99.90;;;;;;4959399;28;20037;-71
2022/05/03 11:46:53;;;;;;;11.50;9.02;;;18.30;99.90;;;;;;4962441;28;20023;-71
2022/05/03 11:49:20;;;;;;;10.77;9.65;;;18.20;99.90;;;;;;4958539;28;20047;-71
2022/05/03 11:57:25;;;;;;;12.57;10.07;;;18.00;99.90;;;;;;4957600;28;20547;-71
2022/05/03 11:59:55;;;;;;;14.05;9.45;;;17.90;95.70;;;;;;4949831;28;20490;-71
2022/05/03 12:02:38;;;;;;;13.32;10.30;;;17.90;95.40;;;;;;4957019;28;20037;-71
2022/05/03 12:05:15;;;;;;;14.30;10.27;;;17.80;93.70;;;;;;4962731;28;20039;-73
2022/05/03 12:07:50;;;;;;;16.35;10.27;;;17.80;94.80;;;;;;4963790;28;20035;-72
2022/05/03 12:10:19;;;;;;;13.10;9.82;;;17.80;94.60;;;;;;4962764;28;20065;-71
2022/05/03 12:13:03;;;;;;;13.25;10.07;;;17.80;94.90;;;;;;4961271;28;20098;-71
2022/05/03 12:15:29;;;;;;;10.57;9.38;;;17.90;96.00;;;;;;4959223;28;20433;-70
2022/05/03 12:17:58;;;;;;;15.07;9.85;;;18.40;93.90;;;;;;4963687;28;20266;-72
2022/05/03 12:20:24;;;;;;;16.65;9.00;;;18.60;91.30;;;;;;4959707;28;20129;-74
2022/05/03 12:23:13;;;;;;;18.67;9.60;;;18.80;91.30;;;;;;4968812;28;20562;-71
2022/05/03 12:25:41;;;;;;;14.55;8.52;;;19.00;90.70;;;;;;4961118;28;20061;-71
2022/05/03 12:28:07;;;;;;;12.07;8.52;;;19.00;90.50;;;;;;4968213;28;20034;-71
2022/05/03 12:30:34;;;;;;;14.90;9.30;;;19.40;88.40;;;;;;4962030;28;20431;-70
2022/05/03 12:33:02;;;;;;;12.30;8.20;;;19.90;83.00;;;;;;4964701;28;20053;-70
2022/05/03 12:35:32;;;;;;;12.45;9.23;;;20.00;83.90;;;;;;4967389;28;20037;-69
2022/05/03 12:38:07;;;;;;;14.27;8.98;;;20.30;83.60;;;;;;4966029;28;20106;-71
2022/05/03 12:40:33;;;;;;;13.50;8.40;;;20.70;94.80;;;;;;4961499;28;20392;-70
2022/05/03 12:43:12;;;;;;;12.18;8.13;;;20.70;94.20;;;;;;4960447;28;20479;-70
2022/05/03 12:45:37;;;;;;;10.50;7.07;;;20.60;95.30;;;;;;4957133;28;20153;-71
2022/05/03 12:48:03;;;;;;;13.32;8.50;;;20.40;93.70;;;;;;4955081;28;20162;-71
2022/05/03 12:50:29;;;;;;;10.48;8.30;;;20.30;94.00;;;;;;4963018;28;20383;-70
2022/05/03 12:52:54;;;;;;;13.52;8.98;;;20.20;94.90;;;;;;4964090;28;20023;-72
2022/05/03 12:55:20;;;;;;;8.73;7.72;;;20.30;96.00;;;;;;4960274;28;20072;-72
2022/05/03 13:00:32;;;;;;;9.13;6.65;;;20.50;93.70;;;;;;4952403;28;20026;-71
2022/05/03 13:03:00;;;;;;;12.93;7.38;;;20.40;93.10;;;;;;4960263;28;20054;-72
2022/05/03 13:05:26;;;;;;;11.60;7.45;;;20.40;94.00;;;;;;4950274;28;20031;-72
2022/05/03 13:07:51;;;;;;;9.60;8.10;;;20.10;96.30;;;;;;4960917;28;20622;-72
2022/05/03 13:10:17;;;;;;;13.70;7.03;;;19.90;96.00;;;;;;4959140;28;20033;-73
2022/05/03 13:12:42;;;;;;;9.90;7.43;;;20.00;96.20;;;;;;4957135;28;20085;-72
2022/05/03 13:15:10;;;;;;;9.63;6.90;;;20.30;94.10;;;;;;4961469;28;20037;-72
2022/05/03 13:17:36;;;;;;;8.98;6.95;;;20.30;94.00;;;;;;4959132;28;20543;-71
2022/05/03 13:20:01;;;;;;;7.40;6.22;;;20.30;94.20;;;;;;4961578;28;20113;-72
2022/05/03 13:22:27;;;;;;;7.68;5.72;;;20.30;92.30;;;;;;4954211;28;20035;-72
2022/05/03 13:24:53;;;;;;;8.93;6.65;;;20.60;95.50;;;;;;4961599;28;20027;-72
2022/05/03 13:27:18;;;;;;;13.35;6.57;;;20.70;95.40;;;;;;4956505;28;20052;-72
2022/05/03 13:29:44;;;;;;;6.57;5.70;;;20.60;93.30;;;;;;4956489;28;20035;-73
2022/05/03 13:32:10;;;;;;;8.52;6.50;;;20.50;93.00;;;;;;4958329;28;20046;-71
2022/05/03 13:34:35;;;;;;;9.23;6.47;;;20.60;94.00;;;;;;4955706;28;20029;-71